createdAt,value
2017-12-12T00:00:17.871Z,0.00
2017-12-12T00:01:17.783Z,0.00
2017-12-12T00:02:17.695Z,0.00
2017-12-12T00:03:17.611Z,0.00
2017-12-12T00:04:17.520Z,0.00
2017-12-12T00:05:17.428Z,0.00
2017-12-12T00:06:17.336Z,0.00
2017-12-12T00:07:17.247Z,0.00
2017-12-12T00:08:17.160Z,0.00
2017-12-12T00:09:17.067Z,0.00
2017-12-12T00:10:17.036Z,0.00
2017-12-12T00:11:16.902Z,0.00
2017-12-12T00:12:16.831Z,0.00
2017-12-12T00:13:16.716Z,0.00
2017-12-12T00:14:16.635Z,0.00
2017-12-12T00:15:16.547Z,0.00
2017-12-12T00:16:16.452Z,0.00
2017-12-12T00:17:16.368Z,0.00
2017-12-12T00:18:16.273Z,0.00
2017-12-12T00:19:16.188Z,0.00
2017-12-12T00:20:16.104Z,0.00
2017-12-12T00:21:16.007Z,0.00
2017-12-12T00:22:15.911Z,0.00
2017-12-12T00:23:15.825Z,0.00
2017-12-12T00:24:15.734Z,0.00
2017-12-12T00:25:15.644Z,0.00
2017-12-12T00:26:15.556Z,0.00
2017-12-12T00:27:15.475Z,0.00
2017-12-12T00:28:15.383Z,0.00
2017-12-12T00:29:15.304Z,0.00
2017-12-12T00:30:15.218Z,0.00
2017-12-12T00:31:15.124Z,0.00
2017-12-12T00:32:15.030Z,0.00
2017-12-12T00:33:14.944Z,0.00
2017-12-12T00:34:14.848Z,0.00
2017-12-12T00:35:14.759Z,0.00
2017-12-12T00:36:14.684Z,0.00
2017-12-12T00:37:14.577Z,0.00
2017-12-12T00:38:14.497Z,0.00
2017-12-12T00:39:14.403Z,0.00
2017-12-12T00:40:14.311Z,0.00
2017-12-12T00:41:14.226Z,0.00
2017-12-12T00:42:14.154Z,0.00
2017-12-12T00:43:14.048Z,0.00
2017-12-12T00:44:13.962Z,0.00
2017-12-12T00:45:13.870Z,0.00
2017-12-12T00:46:13.781Z,0.00
2017-12-12T00:47:13.703Z,0.00
2017-12-12T00:48:13.605Z,0.00
2017-12-12T00:49:13.519Z,0.00
2017-12-12T00:50:13.436Z,0.00
2017-12-12T00:51:13.350Z,0.00
2017-12-12T00:52:13.253Z,0.00
2017-12-12T00:53:13.165Z,0.00
2017-12-12T00:54:13.085Z,0.00
2017-12-12T00:55:12.989Z,0.00
2017-12-12T00:56:12.910Z,0.00
2017-12-12T00:57:12.815Z,0.00
2017-12-12T00:58:12.725Z,0.00
2017-12-12T00:59:12.632Z,0.00
2017-12-12T01:00:12.542Z,0.00
2017-12-12T01:01:12.485Z,0.00
2017-12-12T01:02:12.368Z,0.00
2017-12-12T01:03:12.276Z,0.00
2017-12-12T01:04:12.192Z,0.00
2017-12-12T01:05:12.109Z,0.00
2017-12-12T01:06:12.011Z,0.00
2017-12-12T01:07:11.928Z,0.00
2017-12-12T01:08:11.837Z,0.00
2017-12-12T01:09:11.743Z,0.00
2017-12-12T01:10:11.671Z,0.00
2017-12-12T01:11:11.584Z,0.00
2017-12-12T01:12:11.493Z,0.00
2017-12-12T01:13:11.390Z,0.00
2017-12-12T01:14:11.303Z,0.00
2017-12-12T01:15:11.212Z,0.00
2017-12-12T01:16:11.125Z,0.00
2017-12-12T01:17:11.037Z,0.00
2017-12-12T01:18:10.953Z,0.00
2017-12-12T01:19:10.858Z,0.00
2017-12-12T01:20:10.769Z,0.00
2017-12-12T01:21:10.682Z,0.00
2017-12-12T01:22:10.621Z,0.00
2017-12-12T01:23:10.506Z,0.00
2017-12-12T01:24:10.419Z,0.00
2017-12-12T01:25:10.324Z,0.00
2017-12-12T01:26:10.241Z,0.00
2017-12-12T01:27:10.144Z,0.00
2017-12-12T01:28:10.060Z,0.00
2017-12-12T01:29:09.980Z,0.00
2017-12-12T01:30:09.882Z,0.00
2017-12-12T01:31:09.790Z,0.00
2017-12-12T01:32:09.699Z,0.00
2017-12-12T01:33:09.617Z,0.00
2017-12-12T01:34:09.531Z,0.00
2017-12-12T01:35:09.435Z,0.00
2017-12-12T01:36:09.346Z,0.00
2017-12-12T01:37:09.254Z,0.00
2017-12-12T01:38:09.168Z,0.00
2017-12-12T01:39:09.928Z,0.00
2017-12-12T01:40:09.007Z,0.00
2017-12-12T01:41:08.908Z,0.00
2017-12-12T01:42:08.817Z,0.00
2017-12-12T01:43:08.719Z,0.00
2017-12-12T01:44:08.632Z,0.00
2017-12-12T01:45:08.554Z,0.00
2017-12-12T01:46:08.454Z,0.00
2017-12-12T01:47:08.389Z,0.00
2017-12-12T01:48:08.295Z,0.00
2017-12-12T01:49:08.185Z,0.00
2017-12-12T01:50:08.098Z,0.00
2017-12-12T01:51:08.010Z,0.00
2017-12-12T01:52:07.919Z,0.00
2017-12-12T01:53:07.821Z,0.00
2017-12-12T01:54:07.735Z,0.00
2017-12-12T01:55:07.654Z,0.00
2017-12-12T01:56:07.560Z,0.00
2017-12-12T01:57:07.469Z,0.00
2017-12-12T01:58:07.374Z,0.00
2017-12-12T01:59:07.290Z,0.00
2017-12-12T02:00:07.200Z,0.00
2017-12-12T02:01:07.124Z,0.00
2017-12-12T02:02:07.020Z,0.00
2017-12-12T02:03:06.921Z,0.00
2017-12-12T02:04:06.840Z,0.00
2017-12-12T02:05:06.746Z,0.00
2017-12-12T02:06:06.655Z,0.00
2017-12-12T02:07:06.564Z,0.00
2017-12-12T02:08:06.477Z,0.00
2017-12-12T02:09:06.384Z,0.00
2017-12-12T02:10:06.290Z,0.00
2017-12-12T02:11:06.204Z,0.00
2017-12-12T02:12:06.109Z,0.00
2017-12-12T02:13:06.028Z,0.00
2017-12-12T02:14:05.926Z,0.00
2017-12-12T02:15:05.853Z,0.00
2017-12-12T02:16:05.768Z,0.00
2017-12-12T02:17:05.668Z,0.00
2017-12-12T02:18:05.564Z,0.00
2017-12-12T02:19:05.489Z,0.00
2017-12-12T02:20:05.392Z,0.00
2017-12-12T02:21:05.293Z,0.00
2017-12-12T02:22:05.205Z,0.00
2017-12-12T02:23:05.112Z,0.00
2017-12-12T02:24:05.021Z,0.00
2017-12-12T02:25:04.930Z,0.00
2017-12-12T02:26:04.838Z,0.00
2017-12-12T02:27:04.756Z,0.00
2017-12-12T02:28:04.658Z,0.00
2017-12-12T02:29:04.567Z,0.00
2017-12-12T02:30:04.478Z,0.00
2017-12-12T02:31:04.385Z,0.00
2017-12-12T02:32:04.300Z,0.00
2017-12-12T02:33:04.213Z,0.00
2017-12-12T02:34:04.114Z,0.00
2017-12-12T02:35:04.039Z,0.00
2017-12-12T02:36:03.932Z,0.00
2017-12-12T02:37:03.837Z,0.00
2017-12-12T02:38:04.516Z,0.00
2017-12-12T02:39:03.655Z,0.00
2017-12-12T02:40:03.569Z,0.00
2017-12-12T02:41:03.477Z,0.00
2017-12-12T02:42:03.384Z,0.00
2017-12-12T02:43:03.302Z,0.00
2017-12-12T02:44:03.206Z,0.00
2017-12-12T02:45:03.122Z,0.00
2017-12-12T02:46:03.019Z,0.00
2017-12-12T02:47:02.928Z,0.00
2017-12-12T02:48:02.838Z,0.00
2017-12-12T02:49:02.743Z,0.00
2017-12-12T02:50:02.654Z,0.00
2017-12-12T02:51:02.562Z,0.00
2017-12-12T02:52:02.478Z,0.00
2017-12-12T02:53:02.385Z,0.00
2017-12-12T02:54:02.296Z,0.00
2017-12-12T02:55:02.206Z,0.00
2017-12-12T02:56:02.122Z,0.00
2017-12-12T02:57:02.020Z,0.00
2017-12-12T02:58:01.933Z,0.00
2017-12-12T02:59:01.832Z,0.00
2017-12-12T03:00:01.743Z,0.00
2017-12-12T03:01:01.664Z,0.00
2017-12-12T03:02:01.567Z,0.00
2017-12-12T03:03:01.477Z,0.00
2017-12-12T03:04:01.386Z,0.00
2017-12-12T03:05:01.295Z,0.00
2017-12-12T03:06:01.205Z,0.00
2017-12-12T03:07:01.116Z,0.00
2017-12-12T03:08:01.019Z,0.00
2017-12-12T03:09:00.930Z,0.00
2017-12-12T03:10:00.842Z,0.00
2017-12-12T03:11:00.743Z,0.00
2017-12-12T03:12:00.659Z,0.00
2017-12-12T03:13:00.568Z,0.00
2017-12-12T03:14:00.485Z,0.00
2017-12-12T03:15:00.385Z,0.00
2017-12-12T03:16:00.302Z,0.00
2017-12-12T03:17:00.205Z,0.00
2017-12-12T03:18:00.120Z,0.00
2017-12-12T03:19:00.022Z,0.00
2017-12-12T03:19:59.937Z,0.00
2017-12-12T03:20:59.834Z,0.00
2017-12-12T03:21:59.748Z,0.00
2017-12-12T03:22:59.663Z,0.00
2017-12-12T03:23:59.564Z,0.00
2017-12-12T03:24:59.481Z,0.00
2017-12-12T03:25:59.411Z,0.00
2017-12-12T03:26:59.296Z,0.00
2017-12-12T03:27:59.196Z,0.00
2017-12-12T03:28:59.113Z,0.00
2017-12-12T03:29:59.020Z,0.00
2017-12-12T03:30:58.933Z,0.00
2017-12-12T03:31:58.836Z,0.00
2017-12-12T03:32:58.757Z,0.00
2017-12-12T03:33:58.649Z,0.00
2017-12-12T03:34:58.574Z,0.00
2017-12-12T03:35:58.476Z,0.00
2017-12-12T03:36:59.124Z,0.00
2017-12-12T03:37:58.290Z,0.00
2017-12-12T03:38:58.209Z,0.00
2017-12-12T03:39:58.131Z,0.00
2017-12-12T03:40:58.017Z,0.00
2017-12-12T03:41:57.922Z,0.00
2017-12-12T03:42:57.834Z,0.00
2017-12-12T03:43:57.749Z,0.00
2017-12-12T03:44:57.656Z,0.00
2017-12-12T03:45:57.567Z,0.00
2017-12-12T03:46:57.473Z,0.00
2017-12-12T03:47:57.385Z,0.00
2017-12-12T03:48:57.287Z,0.00
2017-12-12T03:49:57.200Z,0.00
2017-12-12T03:50:57.107Z,0.00
2017-12-12T03:51:57.027Z,0.00
2017-12-12T03:52:56.930Z,0.00
2017-12-12T03:53:56.832Z,0.00
2017-12-12T03:54:56.740Z,0.00
2017-12-12T03:55:56.651Z,0.00
2017-12-12T03:56:56.572Z,0.00
2017-12-12T03:57:56.476Z,0.00
2017-12-12T03:58:56.379Z,0.00
2017-12-12T03:59:56.284Z,0.00
2017-12-12T04:00:56.203Z,0.00
2017-12-12T04:01:56.101Z,0.00
2017-12-12T04:02:56.016Z,0.00
2017-12-12T04:03:55.920Z,0.00
2017-12-12T04:04:55.839Z,0.00
2017-12-12T04:05:55.744Z,0.00
2017-12-12T04:06:55.656Z,0.00
2017-12-12T04:07:55.564Z,0.00
2017-12-12T04:08:55.477Z,0.00
2017-12-12T04:09:55.379Z,0.00
2017-12-12T04:10:55.287Z,0.00
2017-12-12T04:11:55.195Z,0.00
2017-12-12T04:12:55.108Z,0.00
2017-12-12T04:13:55.016Z,0.00
2017-12-12T04:14:54.925Z,0.00
2017-12-12T04:15:54.835Z,0.00
2017-12-12T04:16:54.754Z,0.00
2017-12-12T04:17:54.654Z,0.00
2017-12-12T04:18:54.571Z,0.00
2017-12-12T04:19:54.502Z,0.00
2017-12-12T04:20:54.380Z,0.00
2017-12-12T04:21:54.293Z,0.00
2017-12-12T04:22:54.200Z,0.00
2017-12-12T04:23:54.112Z,0.00
2017-12-12T04:24:54.025Z,0.00
2017-12-12T04:25:53.946Z,0.00
2017-12-12T04:26:53.832Z,0.00
2017-12-12T04:27:53.758Z,0.00
2017-12-12T04:28:53.654Z,0.00
2017-12-12T04:29:53.565Z,0.00
2017-12-12T04:30:53.494Z,0.00
2017-12-12T04:31:53.407Z,0.00
2017-12-12T04:32:53.295Z,0.00
2017-12-12T04:33:53.212Z,0.00
2017-12-12T04:34:53.112Z,0.00
2017-12-12T04:35:53.700Z,0.00
2017-12-12T04:36:52.930Z,0.00
2017-12-12T04:37:52.844Z,0.00
2017-12-12T04:38:52.749Z,0.00
2017-12-12T04:39:52.663Z,0.00
2017-12-12T04:40:52.574Z,0.00
2017-12-12T04:41:52.479Z,0.00
2017-12-12T04:42:52.395Z,0.00
2017-12-12T04:43:52.301Z,0.00
2017-12-12T04:44:52.208Z,0.00
2017-12-12T04:45:52.118Z,0.00
2017-12-12T04:46:52.031Z,0.00
2017-12-12T04:47:51.934Z,0.00
2017-12-12T04:48:51.847Z,0.00
2017-12-12T04:49:51.762Z,0.00
2017-12-12T04:50:51.666Z,0.00
2017-12-12T04:51:51.576Z,0.00
2017-12-12T04:52:51.486Z,0.00
2017-12-12T04:53:51.401Z,0.00
2017-12-12T04:54:51.306Z,0.00
2017-12-12T04:55:51.214Z,0.00
2017-12-12T04:56:51.130Z,0.00
2017-12-12T04:57:51.037Z,0.00
2017-12-12T04:58:50.943Z,0.00
2017-12-12T04:59:50.866Z,0.00
2017-12-12T05:00:50.771Z,0.00
2017-12-12T05:01:50.676Z,0.00
2017-12-12T05:02:50.590Z,0.00
2017-12-12T05:03:50.506Z,0.00
2017-12-12T05:04:50.408Z,0.00
2017-12-12T05:05:50.316Z,0.00
2017-12-12T05:06:50.223Z,0.00
2017-12-12T05:07:50.135Z,0.00
2017-12-12T05:08:50.045Z,0.00
2017-12-12T05:09:49.954Z,0.00
2017-12-12T05:10:49.869Z,0.00
2017-12-12T05:11:49.774Z,0.00
2017-12-12T05:12:49.690Z,0.00
2017-12-12T05:13:49.593Z,0.00
2017-12-12T05:14:49.506Z,0.00
2017-12-12T05:15:49.413Z,0.00
2017-12-12T05:16:49.326Z,0.00
2017-12-12T05:17:49.240Z,0.00
2017-12-12T05:18:49.142Z,0.00
2017-12-12T05:19:49.056Z,0.00
2017-12-12T05:20:48.966Z,0.00
2017-12-12T05:21:48.879Z,0.00
2017-12-12T05:22:48.780Z,0.00
2017-12-12T05:23:48.691Z,0.00
2017-12-12T05:24:48.599Z,0.00
2017-12-12T05:25:48.510Z,0.00
2017-12-12T05:26:48.419Z,0.00
2017-12-12T05:27:48.330Z,0.00
2017-12-12T05:28:48.244Z,0.00
2017-12-12T05:29:48.155Z,0.00
2017-12-12T05:30:48.076Z,0.00
2017-12-12T05:31:47.979Z,0.00
2017-12-12T05:32:47.876Z,0.00
2017-12-12T05:33:47.785Z,0.00
2017-12-12T05:34:48.310Z,0.00
2017-12-12T05:35:47.639Z,0.00
2017-12-12T05:36:47.530Z,0.00
2017-12-12T05:37:47.431Z,0.00
2017-12-12T05:38:47.354Z,0.00
2017-12-12T05:39:47.243Z,0.00
2017-12-12T05:40:47.173Z,0.00
2017-12-12T05:41:47.072Z,0.00
2017-12-12T05:42:46.996Z,0.00
2017-12-12T05:43:46.915Z,0.00
2017-12-12T05:44:46.792Z,0.00
2017-12-12T05:45:46.709Z,0.00
2017-12-12T05:46:46.617Z,0.00
2017-12-12T05:47:46.536Z,0.00
2017-12-12T05:48:46.436Z,0.00
2017-12-12T05:49:46.347Z,0.00
2017-12-12T05:50:46.277Z,0.00
2017-12-12T05:51:46.169Z,0.00
2017-12-12T05:52:46.075Z,0.00
2017-12-12T05:53:45.988Z,0.00
2017-12-12T05:54:45.896Z,0.00
2017-12-12T05:55:45.809Z,0.00
2017-12-12T05:56:45.721Z,0.00
2017-12-12T05:57:45.628Z,0.00
2017-12-12T05:58:45.540Z,0.00
2017-12-12T05:59:45.479Z,0.00
2017-12-12T06:00:45.361Z,0.00
2017-12-12T06:01:45.272Z,0.00
2017-12-12T06:02:45.177Z,0.00
2017-12-12T06:03:45.082Z,0.00
2017-12-12T06:04:44.988Z,0.00
2017-12-12T06:05:44.898Z,0.00
2017-12-12T06:06:44.810Z,0.00
2017-12-12T06:07:44.761Z,0.00
2017-12-12T06:08:44.629Z,0.00
2017-12-12T06:09:44.569Z,0.00
2017-12-12T06:10:44.450Z,0.00
2017-12-12T06:11:44.364Z,0.00
2017-12-12T06:12:44.284Z,0.00
2017-12-12T06:13:44.176Z,0.00
2017-12-12T06:14:44.092Z,0.00
2017-12-12T06:15:44.003Z,0.00
2017-12-12T06:16:43.910Z,0.00
2017-12-12T06:17:43.815Z,0.00
2017-12-12T06:18:43.736Z,0.00
2017-12-12T06:19:43.638Z,0.00
2017-12-12T06:20:43.572Z,0.00
2017-12-12T06:21:43.455Z,0.00
2017-12-12T06:22:43.371Z,0.00
2017-12-12T06:23:43.276Z,0.00
2017-12-12T06:24:43.185Z,0.00
2017-12-12T06:25:43.100Z,0.00
2017-12-12T06:26:43.002Z,0.00
2017-12-12T06:27:42.922Z,0.00
2017-12-12T06:28:42.849Z,0.00
2017-12-12T06:29:42.732Z,0.00
2017-12-12T06:30:42.661Z,0.00
2017-12-12T06:31:42.562Z,0.00
2017-12-12T06:32:42.459Z,0.00
2017-12-12T06:33:42.886Z,0.00
2017-12-12T06:34:42.282Z,0.00
2017-12-12T06:35:42.192Z,0.00
2017-12-12T06:36:42.101Z,0.00
2017-12-12T06:37:42.008Z,0.00
2017-12-12T06:38:41.921Z,0.00
2017-12-12T06:39:41.827Z,0.00
2017-12-12T06:40:41.737Z,0.00
2017-12-12T06:41:41.646Z,0.00
2017-12-12T06:42:41.586Z,0.00
2017-12-12T06:43:41.500Z,0.00
2017-12-12T06:44:41.375Z,0.00
2017-12-12T06:45:41.290Z,0.00
2017-12-12T06:46:41.197Z,0.00
2017-12-12T06:47:41.132Z,0.00
2017-12-12T06:48:41.055Z,0.00
2017-12-12T06:49:40.926Z,0.00
2017-12-12T06:50:40.856Z,0.00
2017-12-12T06:51:40.750Z,0.00
2017-12-12T06:52:40.651Z,0.00
2017-12-12T06:53:40.570Z,0.00
2017-12-12T06:54:40.473Z,0.00
2017-12-12T06:55:40.409Z,0.00
2017-12-12T06:56:40.298Z,0.00
2017-12-12T06:57:40.208Z,0.00
2017-12-12T06:58:40.122Z,0.00
2017-12-12T06:59:40.042Z,5.63
2017-12-12T07:00:39.930Z,5.63
2017-12-12T07:01:39.871Z,5.63
2017-12-12T07:02:39.754Z,5.63
2017-12-12T07:03:39.667Z,5.63
2017-12-12T07:04:39.573Z,5.63
2017-12-12T07:05:39.476Z,11.25
2017-12-12T07:06:39.386Z,11.25
2017-12-12T07:07:47.169Z,11.25
2017-12-12T07:08:39.216Z,16.88
2017-12-12T07:09:39.121Z,16.88
2017-12-12T07:10:39.031Z,16.88
2017-12-12T07:11:38.940Z,16.88
2017-12-12T07:12:38.845Z,22.50
2017-12-12T07:13:38.759Z,22.50
2017-12-12T07:14:38.708Z,22.50
2017-12-12T07:15:38.571Z,22.50
2017-12-12T07:16:38.487Z,16.88
2017-12-12T07:17:38.396Z,16.88
2017-12-12T07:18:38.319Z,11.25
2017-12-12T07:19:38.217Z,11.25
2017-12-12T07:20:38.134Z,11.25
2017-12-12T07:21:38.070Z,11.25
2017-12-12T07:22:37.948Z,11.25
2017-12-12T07:23:37.850Z,11.25
2017-12-12T07:24:37.758Z,11.25
2017-12-12T07:25:37.677Z,16.88
2017-12-12T07:26:37.607Z,16.88
2017-12-12T07:27:37.521Z,22.50
2017-12-12T07:28:37.400Z,28.13
2017-12-12T07:29:37.316Z,33.75
2017-12-12T07:30:37.225Z,39.38
2017-12-12T07:31:37.127Z,39.38
2017-12-12T07:32:37.474Z,39.38
2017-12-12T07:33:36.950Z,45.00
2017-12-12T07:34:36.854Z,50.63
2017-12-12T07:35:36.767Z,56.25
2017-12-12T07:36:36.677Z,61.88
2017-12-12T07:37:36.587Z,73.13
2017-12-12T07:38:36.493Z,78.75
2017-12-12T07:39:36.411Z,84.38
2017-12-12T07:40:36.327Z,90.00
2017-12-12T07:41:36.232Z,95.63
2017-12-12T07:42:36.139Z,101.25
2017-12-12T07:43:36.056Z,106.88
2017-12-12T07:44:35.951Z,112.50
2017-12-12T07:45:35.875Z,112.50
2017-12-12T07:46:35.770Z,118.13
2017-12-12T07:47:35.678Z,123.75
2017-12-12T07:48:35.590Z,129.38
2017-12-12T07:49:35.503Z,129.38
2017-12-12T07:50:35.412Z,135.00
2017-12-12T07:51:35.316Z,146.25
2017-12-12T07:52:35.224Z,151.88
2017-12-12T07:53:35.134Z,157.50
2017-12-12T07:54:35.038Z,157.50
2017-12-12T07:55:34.950Z,157.50
2017-12-12T07:56:34.865Z,163.13
2017-12-12T07:57:34.779Z,168.75
2017-12-12T07:58:34.685Z,180.00
2017-12-12T07:59:34.603Z,191.25
2017-12-12T08:00:34.503Z,208.13
2017-12-12T08:01:34.410Z,225.00
2017-12-12T08:02:34.327Z,253.13
2017-12-12T08:03:34.234Z,264.38
2017-12-12T08:04:34.183Z,281.25
2017-12-12T08:05:34.059Z,292.50
2017-12-12T08:06:33.963Z,303.75
2017-12-12T08:07:33.875Z,343.13
2017-12-12T08:08:33.791Z,523.13
2017-12-12T08:09:33.691Z,601.88
2017-12-12T08:10:33.599Z,793.13
2017-12-12T08:11:33.503Z,967.50
2017-12-12T08:12:33.415Z,804.38
2017-12-12T08:13:33.322Z,478.13
2017-12-12T08:14:33.239Z,658.13
2017-12-12T08:15:33.158Z,888.75
2017-12-12T08:16:33.061Z,292.50
2017-12-12T08:17:32.968Z,450.00
2017-12-12T08:18:32.875Z,286.88
2017-12-12T08:19:32.794Z,337.50
2017-12-12T08:20:32.700Z,855.00
2017-12-12T08:21:32.610Z,922.50
2017-12-12T08:22:32.514Z,821.25
2017-12-12T08:23:32.435Z,759.38
2017-12-12T08:24:32.340Z,821.25
2017-12-12T08:25:32.260Z,1063.13
2017-12-12T08:26:32.164Z,1153.13
2017-12-12T08:27:32.069Z,1085.63
2017-12-12T08:28:31.980Z,1215.00
2017-12-12T08:29:31.893Z,1254.38
2017-12-12T08:30:31.805Z,1276.88
2017-12-12T08:31:32.045Z,1822.50
2017-12-12T08:32:31.641Z,1980.00
2017-12-12T08:33:31.543Z,1923.75
2017-12-12T08:34:31.469Z,1563.75
2017-12-12T08:35:31.370Z,967.50
2017-12-12T08:36:31.276Z,860.63
2017-12-12T08:37:31.180Z,1929.38
2017-12-12T08:38:31.096Z,1890.00
2017-12-12T08:39:31.022Z,1254.38
2017-12-12T08:40:30.923Z,416.25
2017-12-12T08:41:30.832Z,978.75
2017-12-12T08:42:30.742Z,421.88
2017-12-12T08:43:30.659Z,1395.00
2017-12-12T08:44:30.568Z,1620.00
2017-12-12T08:45:30.474Z,1383.75
2017-12-12T08:46:30.407Z,2407.50
2017-12-12T08:47:30.304Z,2778.75
2017-12-12T08:48:30.212Z,3043.13
2017-12-12T08:49:30.123Z,849.38
2017-12-12T08:50:30.040Z,562.50
2017-12-12T08:51:29.950Z,410.63
2017-12-12T08:52:29.867Z,388.13
2017-12-12T08:53:29.777Z,303.75
2017-12-12T08:54:29.694Z,286.88
2017-12-12T08:55:29.603Z,281.25
2017-12-12T08:56:29.516Z,264.38
2017-12-12T08:57:29.429Z,247.50
2017-12-12T08:58:29.346Z,241.88
2017-12-12T08:59:29.251Z,208.13
2017-12-12T09:00:29.161Z,196.88
2017-12-12T09:01:29.075Z,191.25
2017-12-12T09:02:28.986Z,208.13
2017-12-12T09:03:28.902Z,253.13
2017-12-12T09:04:28.815Z,286.88
2017-12-12T09:05:28.723Z,281.25
2017-12-12T09:06:28.634Z,247.50
2017-12-12T09:07:28.592Z,236.25
2017-12-12T09:08:28.456Z,180.00
2017-12-12T09:09:28.372Z,146.25
2017-12-12T09:10:28.279Z,146.25
2017-12-12T09:11:28.208Z,157.50
2017-12-12T09:12:28.108Z,196.88
2017-12-12T09:13:28.012Z,236.25
2017-12-12T09:14:27.923Z,286.88
2017-12-12T09:15:27.848Z,669.38
2017-12-12T09:16:27.749Z,292.50
2017-12-12T09:17:27.690Z,286.88
2017-12-12T09:18:27.577Z,365.63
2017-12-12T09:19:27.480Z,337.50
2017-12-12T09:20:27.398Z,388.13
2017-12-12T09:21:27.313Z,495.00
2017-12-12T09:22:27.220Z,399.38
2017-12-12T09:23:27.133Z,258.75
2017-12-12T09:24:27.040Z,202.50
2017-12-12T09:25:26.951Z,146.25
2017-12-12T09:26:26.867Z,118.13
2017-12-12T09:27:26.775Z,118.13
2017-12-12T09:28:26.682Z,135.00
2017-12-12T09:29:26.599Z,146.25
2017-12-12T09:30:26.636Z,163.13
2017-12-12T09:31:26.418Z,168.75
2017-12-12T09:32:26.339Z,168.75
2017-12-12T09:33:26.242Z,168.75
2017-12-12T09:34:26.153Z,174.38
2017-12-12T09:35:26.069Z,168.75
2017-12-12T09:36:25.983Z,174.38
2017-12-12T09:37:25.885Z,202.50
2017-12-12T09:38:25.792Z,196.88
2017-12-12T09:39:25.712Z,185.63
2017-12-12T09:40:25.618Z,140.63
2017-12-12T09:41:25.528Z,112.50
2017-12-12T09:42:25.443Z,112.50
2017-12-12T09:43:25.392Z,118.13
2017-12-12T09:44:25.280Z,118.13
2017-12-12T09:45:25.175Z,112.50
2017-12-12T09:46:25.102Z,112.50
2017-12-12T09:47:24.996Z,123.75
2017-12-12T09:48:24.910Z,151.88
2017-12-12T09:49:24.816Z,168.75
2017-12-12T09:50:24.733Z,163.13
2017-12-12T09:51:24.679Z,174.38
2017-12-12T09:52:24.548Z,213.75
2017-12-12T09:53:24.475Z,196.88
2017-12-12T09:54:24.369Z,213.75
2017-12-12T09:55:24.279Z,247.50
2017-12-12T09:56:24.217Z,320.63
2017-12-12T09:57:24.099Z,438.75
2017-12-12T09:58:24.025Z,478.13
2017-12-12T09:59:23.930Z,433.13
2017-12-12T10:00:23.834Z,376.88
2017-12-12T10:01:23.746Z,343.13
2017-12-12T10:02:23.674Z,382.50
2017-12-12T10:03:23.574Z,579.38
2017-12-12T10:04:23.508Z,821.25
2017-12-12T10:05:23.387Z,478.13
2017-12-12T10:06:23.320Z,360.00
2017-12-12T10:07:23.208Z,286.88
2017-12-12T10:08:23.125Z,230.63
2017-12-12T10:09:23.114Z,196.88
2017-12-12T10:10:22.951Z,168.75
2017-12-12T10:11:22.859Z,157.50
2017-12-12T10:12:22.770Z,163.13
2017-12-12T10:13:22.684Z,191.25
2017-12-12T10:14:22.619Z,208.13
2017-12-12T10:15:22.516Z,230.63
2017-12-12T10:16:22.424Z,241.88
2017-12-12T10:17:22.328Z,253.13
2017-12-12T10:18:22.261Z,247.50
2017-12-12T10:19:22.159Z,236.25
2017-12-12T10:20:22.073Z,225.00
2017-12-12T10:21:21.978Z,202.50
2017-12-12T10:22:21.885Z,185.63
2017-12-12T10:23:21.817Z,174.38
2017-12-12T10:24:21.705Z,168.75
2017-12-12T10:25:21.645Z,163.13
2017-12-12T10:26:21.533Z,146.25
2017-12-12T10:27:21.445Z,135.00
2017-12-12T10:28:21.404Z,123.75
2017-12-12T10:29:21.263Z,118.13
2017-12-12T10:30:21.213Z,101.25
2017-12-12T10:31:21.092Z,95.63
2017-12-12T10:32:21.010Z,90.00
2017-12-12T10:33:20.928Z,90.00
2017-12-12T10:34:20.822Z,90.00
2017-12-12T10:35:20.728Z,95.63
2017-12-12T10:36:20.643Z,95.63
2017-12-12T10:37:20.559Z,95.63
2017-12-12T10:38:20.471Z,101.25
2017-12-12T10:39:20.376Z,106.88
2017-12-12T10:40:20.283Z,101.25
2017-12-12T10:41:20.199Z,95.63
2017-12-12T10:42:20.127Z,95.63
2017-12-12T10:43:20.054Z,95.63
2017-12-12T10:44:19.932Z,95.63
2017-12-12T10:45:19.846Z,95.63
2017-12-12T10:46:19.758Z,95.63
2017-12-12T10:47:19.661Z,95.63
2017-12-12T10:48:19.580Z,95.63
2017-12-12T10:49:19.494Z,95.63
2017-12-12T10:50:19.403Z,95.63
2017-12-12T10:51:19.303Z,101.25
2017-12-12T10:52:19.247Z,106.88
2017-12-12T10:53:19.130Z,123.75
2017-12-12T10:54:19.048Z,129.38
2017-12-12T10:55:18.949Z,135.00
2017-12-12T10:56:18.860Z,146.25
2017-12-12T10:57:18.772Z,168.75
2017-12-12T10:58:18.688Z,185.63
2017-12-12T10:59:19.539Z,196.88
2017-12-12T11:00:18.518Z,230.63
2017-12-12T11:01:18.417Z,298.13
2017-12-12T11:02:18.324Z,326.25
2017-12-12T11:03:18.244Z,326.25
2017-12-12T11:04:18.152Z,309.38
2017-12-12T11:05:18.066Z,275.63
2017-12-12T11:06:17.973Z,247.50
2017-12-12T11:07:17.896Z,208.13
2017-12-12T11:08:17.790Z,174.38
2017-12-12T11:09:17.706Z,163.13
2017-12-12T11:10:17.615Z,157.50
2017-12-12T11:11:17.521Z,168.75
2017-12-12T11:12:17.454Z,191.25
2017-12-12T11:13:17.352Z,213.75
2017-12-12T11:14:17.281Z,230.63
2017-12-12T11:15:17.173Z,236.25
2017-12-12T11:16:17.077Z,247.50
2017-12-12T11:17:16.998Z,286.88
2017-12-12T11:18:16.903Z,343.13
2017-12-12T11:19:16.806Z,444.38
2017-12-12T11:20:16.747Z,455.63
2017-12-12T11:21:16.641Z,568.13
2017-12-12T11:22:16.549Z,388.13
2017-12-12T11:23:16.453Z,871.88
2017-12-12T11:24:16.374Z,1530.00
2017-12-12T11:25:16.271Z,838.13
2017-12-12T11:26:16.180Z,579.38
2017-12-12T11:27:16.102Z,534.38
2017-12-12T11:28:16.026Z,405.00
2017-12-12T11:29:15.926Z,343.13
2017-12-12T11:30:15.904Z,292.50
2017-12-12T11:31:15.754Z,472.50
2017-12-12T11:32:15.654Z,275.63
2017-12-12T11:33:15.555Z,236.25
2017-12-12T11:34:15.487Z,196.88
2017-12-12T11:35:15.375Z,180.00
2017-12-12T11:36:15.292Z,163.13
2017-12-12T11:37:15.203Z,185.63
2017-12-12T11:38:15.110Z,253.13
2017-12-12T11:39:15.059Z,230.63
2017-12-12T11:40:14.938Z,196.88
2017-12-12T11:41:14.863Z,163.13
2017-12-12T11:42:14.808Z,151.88
2017-12-12T11:43:14.690Z,140.63
2017-12-12T11:44:14.583Z,129.38
2017-12-12T11:45:14.481Z,129.38
2017-12-12T11:46:14.398Z,157.50
2017-12-12T11:47:14.343Z,196.88
2017-12-12T11:48:14.214Z,208.13
2017-12-12T11:49:14.143Z,196.88
2017-12-12T11:50:14.037Z,168.75
2017-12-12T11:51:13.946Z,135.00
2017-12-12T11:52:13.853Z,112.50
2017-12-12T11:53:13.773Z,101.25
2017-12-12T11:54:13.678Z,101.25
2017-12-12T11:55:13.602Z,95.63
2017-12-12T11:56:13.503Z,90.00
2017-12-12T11:57:13.411Z,95.63
2017-12-12T11:58:14.144Z,101.25
2017-12-12T11:59:13.237Z,118.13
2017-12-12T12:00:13.177Z,135.00
2017-12-12T12:01:13.075Z,157.50
2017-12-12T12:02:12.966Z,168.75
2017-12-12T12:03:12.894Z,157.50
2017-12-12T12:04:12.787Z,157.50
2017-12-12T12:05:12.698Z,146.25
2017-12-12T12:06:12.605Z,135.00
2017-12-12T12:07:12.522Z,146.25
2017-12-12T12:08:12.471Z,191.25
2017-12-12T12:09:12.348Z,213.75
2017-12-12T12:10:12.263Z,219.38
2017-12-12T12:11:12.190Z,236.25
2017-12-12T12:12:12.074Z,303.75
2017-12-12T12:13:11.985Z,315.00
2017-12-12T12:14:11.905Z,326.25
2017-12-12T12:15:11.821Z,433.13
2017-12-12T12:16:11.717Z,466.88
2017-12-12T12:17:11.653Z,517.50
2017-12-12T12:18:11.555Z,523.13
2017-12-12T12:19:11.454Z,534.38
2017-12-12T12:20:11.371Z,500.63
2017-12-12T12:21:11.302Z,478.13
2017-12-12T12:22:11.190Z,483.75
2017-12-12T12:23:11.107Z,461.25
2017-12-12T12:24:11.007Z,450.00
2017-12-12T12:25:10.945Z,433.13
2017-12-12T12:26:10.846Z,410.63
2017-12-12T12:27:10.744Z,405.00
2017-12-12T12:28:10.666Z,405.00
2017-12-12T12:29:10.589Z,410.63
2017-12-12T12:30:10.476Z,438.75
2017-12-12T12:31:10.402Z,405.00
2017-12-12T12:32:10.315Z,433.13
2017-12-12T12:33:10.216Z,472.50
2017-12-12T12:34:10.131Z,511.88
2017-12-12T12:35:10.048Z,495.00
2017-12-12T12:36:09.955Z,540.00
2017-12-12T12:37:09.893Z,478.13
2017-12-12T12:38:09.786Z,421.88
2017-12-12T12:39:09.701Z,433.13
2017-12-12T12:40:09.640Z,343.13
2017-12-12T12:41:09.518Z,337.50
2017-12-12T12:42:09.422Z,438.75
2017-12-12T12:43:09.338Z,483.75
2017-12-12T12:44:09.262Z,511.88
2017-12-12T12:45:09.178Z,528.75
2017-12-12T12:46:09.084Z,466.88
2017-12-12T12:47:08.986Z,371.25
2017-12-12T12:48:08.901Z,315.00
2017-12-12T12:49:08.814Z,281.25
2017-12-12T12:50:08.750Z,264.38
2017-12-12T12:51:08.826Z,281.25
2017-12-12T12:52:08.558Z,348.75
2017-12-12T12:53:08.457Z,298.13
2017-12-12T12:54:08.384Z,303.75
2017-12-12T12:55:08.285Z,298.13